createdAt,value
2023-05-05T00:01:58.006Z,101170.09
2023-05-05T00:04:26.506Z,101171.50
2023-05-05T00:06:55.082Z,101171.31
2023-05-05T00:09:23.738Z,101178.03
2023-05-05T00:11:52.348Z,101178.88
2023-05-05T00:14:20.700Z,101173.94
2023-05-05T00:16:49.314Z,101171.31
2023-05-05T00:19:17.669Z,101170.94
2023-05-05T00:21:46.258Z,101162.53
2023-05-05T00:24:14.388Z,101165.16
2023-05-05T00:26:42.782Z,101167.06
2023-05-05T00:29:10.956Z,101170.22
2023-05-05T00:31:39.502Z,101170.72
2023-05-05T00:34:07.652Z,101170.63
2023-05-05T00:36:36.102Z,101174.81
2023-05-05T00:39:04.073Z,101165.75
2023-05-05T00:41:32.502Z,101161.59
2023-05-05T00:44:00.586Z,101162.91
2023-05-05T00:46:31.058Z,101158.25
2023-05-05T00:48:59.947Z,101162.25
2023-05-05T00:51:29.263Z,101156.13
2023-05-05T00:53:57.518Z,101155.69
2023-05-05T00:56:27.607Z,101153.09
2023-05-05T00:58:55.724Z,101157.09
2023-05-05T01:01:24.309Z,101157.88
2023-05-05T01:03:52.566Z,101149.69
2023-05-05T01:06:58.974Z,101147.56
2023-05-05T01:09:29.922Z,101144.00
2023-05-05T01:12:22.518Z,101140.00
2023-05-05T01:15:29.311Z,101139.47
2023-05-05T01:18:04.635Z,101130.13
2023-05-05T01:21:02.394Z,101124.50
2023-05-05T01:24:00.752Z,101127.06
2023-05-05T01:26:55.989Z,101122.91
2023-05-05T01:30:09.497Z,101120.28
2023-05-05T01:32:47.672Z,101131.31
2023-05-05T01:35:21.651Z,101128.53
2023-05-05T01:37:59.518Z,101137.19
2023-05-05T01:40:32.653Z,101134.47
2023-05-05T01:43:05.087Z,101127.53
2023-05-05T01:45:38.609Z,101126.91
2023-05-05T01:48:08.608Z,101128.91
2023-05-05T01:50:37.764Z,101120.50
2023-05-05T01:53:07.685Z,101124.56
2023-05-05T01:55:37.510Z,101122.13
2023-05-05T01:58:08.368Z,101118.63
2023-05-05T02:00:37.639Z,101118.78
2023-05-05T02:03:08.299Z,101127.16
2023-05-05T02:05:40.065Z,101124.47
2023-05-05T02:08:10.064Z,101129.03
2023-05-05T02:10:43.089Z,101117.13
2023-05-05T02:13:13.458Z,101125.94
2023-05-05T02:15:44.459Z,101128.47
2023-05-05T02:18:13.298Z,101129.19
2023-05-05T02:20:41.873Z,101127.63
2023-05-05T02:23:10.233Z,101115.50
2023-05-05T02:25:45.635Z,101122.38
2023-05-05T02:28:33.768Z,101112.63
2023-05-05T02:31:06.232Z,101114.19
2023-05-05T02:33:37.253Z,101110.88
2023-05-05T02:36:28.614Z,101110.88
2023-05-05T02:39:13.097Z,101116.44
2023-05-05T02:41:45.456Z,101109.22
2023-05-05T02:44:25.263Z,101114.50
2023-05-05T02:46:55.203Z,101110.81
2023-05-05T02:49:24.846Z,101115.72
2023-05-05T02:51:58.738Z,101106.91
2023-05-05T02:54:31.972Z,101106.59
2023-05-05T02:57:02.044Z,101108.66
2023-05-05T02:59:47.644Z,101099.78
2023-05-05T03:02:25.129Z,101108.91
2023-05-05T03:05:17.591Z,101103.75
2023-05-05T03:07:59.941Z,101105.78
2023-05-05T03:10:35.139Z,101103.44
2023-05-05T03:13:10.249Z,101105.16
2023-05-05T03:15:48.645Z,101104.31
2023-05-05T03:18:22.816Z,101101.78
2023-05-05T03:20:57.683Z,101098.44
2023-05-05T03:23:26.650Z,101103.19
2023-05-05T03:26:00.128Z,101096.28
2023-05-05T03:28:39.607Z,101096.03
2023-05-05T03:31:22.318Z,101104.13
2023-05-05T03:33:55.452Z,101097.28
2023-05-05T03:36:29.424Z,101093.75
2023-05-05T03:39:00.249Z,101093.06
2023-05-05T03:41:32.079Z,101092.19
2023-05-05T03:44:01.332Z,101098.28
2023-05-05T03:46:29.404Z,101094.25
2023-05-05T03:48:57.801Z,101096.94
2023-05-05T03:51:28.443Z,101095.91
2023-05-05T03:53:57.852Z,101092.25
2023-05-05T03:56:25.931Z,101096.41
2023-05-05T03:58:54.289Z,101102.34
2023-05-05T04:01:22.342Z,101087.47
2023-05-05T04:03:50.895Z,101089.75
2023-05-05T04:06:18.936Z,101088.16
2023-05-05T04:08:47.788Z,101089.22
2023-05-05T04:11:16.487Z,101086.00
2023-05-05T04:13:44.967Z,101093.75
2023-05-05T04:16:13.495Z,101091.66
2023-05-05T04:18:42.015Z,101089.34
2023-05-05T04:21:10.718Z,101095.00
2023-05-05T04:23:40.756Z,101085.66
2023-05-05T04:26:08.824Z,101094.78
2023-05-05T04:28:37.776Z,101091.56
2023-05-05T04:31:06.280Z,101090.19
2023-05-05T04:33:38.220Z,101096.88
2023-05-05T04:36:07.210Z,101092.09
2023-05-05T04:38:35.787Z,101094.91
2023-05-05T04:41:06.702Z,101093.88
2023-05-05T04:43:36.516Z,101099.03
2023-05-05T04:46:04.708Z,101099.09
2023-05-05T04:48:38.165Z,101103.31
2023-05-05T04:51:07.164Z,101098.13
2023-05-05T04:53:36.322Z,101100.22
2023-05-05T04:56:04.513Z,101099.47
2023-05-05T04:58:33.475Z,101092.84
2023-05-05T05:01:01.442Z,101092.28
2023-05-05T05:03:29.928Z,101088.63
2023-05-05T05:05:58.003Z,101098.47
2023-05-05T05:08:26.493Z,101099.09
2023-05-05T05:10:54.461Z,101103.94
2023-05-05T05:13:22.995Z,101102.56
2023-05-05T05:15:52.204Z,101103.94
2023-05-05T05:18:20.541Z,101102.94
2023-05-05T05:20:50.391Z,101110.91
2023-05-05T05:23:19.947Z,101108.75
2023-05-05T05:25:48.494Z,101110.25
2023-05-05T05:28:19.728Z,101109.88
2023-05-05T05:30:52.948Z,101109.81
2023-05-05T05:33:21.690Z,101111.72
2023-05-05T05:35:50.583Z,101102.63
2023-05-05T05:38:21.417Z,101105.63
2023-05-05T05:40:52.431Z,101115.38
2023-05-05T05:43:21.451Z,101109.47
2023-05-05T05:45:49.813Z,101110.69
2023-05-05T05:48:18.610Z,101113.72
2023-05-05T05:50:46.759Z,101114.22
2023-05-05T05:53:15.633Z,101124.38
2023-05-05T05:55:46.688Z,101111.06
2023-05-05T05:58:17.620Z,101116.00
2023-05-05T06:00:46.870Z,101113.75
2023-05-05T06:03:15.513Z,101115.59
2023-05-05T06:05:46.622Z,101116.75
2023-05-05T06:08:16.122Z,101122.22
2023-05-05T06:10:49.010Z,101119.28
2023-05-05T06:13:20.571Z,101122.22
2023-05-05T06:15:51.379Z,101116.28
2023-05-05T06:18:19.909Z,101120.13
2023-05-05T06:20:51.260Z,101122.16
2023-05-05T06:23:21.480Z,101123.66
2023-05-05T06:25:55.839Z,101116.31
2023-05-05T06:28:24.275Z,101126.97
2023-05-05T06:30:52.885Z,101124.94
2023-05-05T06:33:21.250Z,101117.03
2023-05-05T06:35:49.745Z,101126.78
2023-05-05T06:38:18.082Z,101128.44
2023-05-05T06:40:49.728Z,101122.84
2023-05-05T06:43:18.518Z,101127.81
2023-05-05T06:45:53.827Z,101121.78
2023-05-05T06:48:22.419Z,101121.84
2023-05-05T06:50:50.450Z,101125.69
2023-05-05T06:53:18.821Z,101128.00
2023-05-05T06:55:47.664Z,101129.69
2023-05-05T06:58:16.025Z,101127.31
2023-05-05T07:00:44.145Z,101132.34
2023-05-05T07:03:12.607Z,101126.66
2023-05-05T07:05:40.661Z,101133.94
2023-05-05T07:08:11.560Z,101126.91
2023-05-05T07:10:39.698Z,101123.25
2023-05-05T07:13:08.672Z,101123.44
2023-05-05T07:15:36.818Z,101130.63
2023-05-05T07:18:05.376Z,101126.00
2023-05-05T07:20:33.484Z,101134.47
2023-05-05T07:23:01.777Z,101137.56
2023-05-05T07:25:29.763Z,101131.66
2023-05-05T07:27:58.633Z,101141.50
2023-05-05T07:30:26.867Z,101126.72
2023-05-05T07:32:55.561Z,101134.31
2023-05-05T07:35:23.824Z,101130.84
2023-05-05T07:37:52.323Z,101127.81
2023-05-05T07:40:20.775Z,101125.97
2023-05-05T07:42:49.090Z,101129.97
2023-05-05T07:45:17.074Z,101130.03
2023-05-05T07:47:45.464Z,101122.63
2023-05-05T07:50:13.719Z,101128.84
2023-05-05T07:52:48.385Z,101130.03
2023-05-05T07:55:19.899Z,101129.66
2023-05-05T07:57:49.845Z,101123.75
2023-05-05T08:00:19.691Z,101122.19
2023-05-05T08:02:48.823Z,101118.03
2023-05-05T08:05:17.098Z,101117.19
2023-05-05T08:07:45.655Z,101118.38
2023-05-05T08:10:13.808Z,101119.78
2023-05-05T08:12:42.757Z,101120.41
2023-05-05T08:15:11.204Z,101110.69
2023-05-05T08:17:48.163Z,101115.00
2023-05-05T08:20:18.190Z,101116.44
2023-05-05T08:22:48.422Z,101116.50
2023-05-05T08:25:16.458Z,101127.13
2023-05-05T08:27:45.053Z,101112.09
2023-05-05T08:30:13.576Z,101111.94
2023-05-05T08:32:41.976Z,101114.31
2023-05-05T08:35:10.399Z,101113.38
2023-05-05T08:37:38.958Z,101107.03
2023-05-05T08:40:07.682Z,101110.06
2023-05-05T08:42:38.487Z,101109.47
2023-05-05T08:45:09.474Z,101106.88
2023-05-05T08:47:39.390Z,101114.63
2023-05-05T08:50:11.180Z,101107.34
2023-05-05T08:52:44.674Z,101112.88
2023-05-05T08:55:14.863Z,101118.13
2023-05-05T08:58:05.405Z,101113.47
2023-05-05T09:00:34.024Z,101115.00
2023-05-05T09:03:02.792Z,101112.31
2023-05-05T09:05:30.887Z,101128.25
2023-05-05T09:07:59.258Z,101118.56
2023-05-05T09:10:31.514Z,101117.38
2023-05-05T09:13:01.270Z,101110.78
2023-05-05T09:15:29.243Z,101110.03
2023-05-05T09:18:00.824Z,101111.56
2023-05-05T09:20:37.208Z,101115.00
2023-05-05T09:23:19.870Z,101113.53
2023-05-05T09:26:02.782Z,101111.19
2023-05-05T09:28:32.080Z,101109.13
2023-05-05T09:31:14.252Z,101099.50
2023-05-05T09:33:43.514Z,101102.63
2023-05-05T09:36:12.449Z,101098.97
2023-05-05T09:38:40.748Z,101108.03
2023-05-05T09:41:08.699Z,101097.94
2023-05-05T09:43:52.133Z,101105.31
2023-05-05T09:46:20.280Z,101087.44
2023-05-05T09:48:48.633Z,101094.81
2023-05-05T09:51:16.754Z,101081.75
2023-05-05T09:53:45.289Z,101088.97
2023-05-05T09:56:13.257Z,101081.78
2023-05-05T09:58:42.519Z,101081.47
2023-05-05T10:01:23.092Z,101082.94
2023-05-05T10:03:54.917Z,101074.53
2023-05-05T10:06:41.326Z,101076.41
2023-05-05T10:09:10.007Z,101087.91
2023-05-05T10:11:40.045Z,101084.91
2023-05-05T10:14:08.982Z,101075.47
2023-05-05T10:16:43.349Z,101071.59
2023-05-05T10:19:14.506Z,101074.56
2023-05-05T10:21:49.719Z,101073.41
2023-05-05T10:24:24.985Z,101070.84
2023-05-05T10:26:56.295Z,101072.25
2023-05-05T10:29:37.040Z,101055.59
2023-05-05T10:32:30.181Z,101064.00
2023-05-05T10:35:01.814Z,101066.25
2023-05-05T10:37:30.814Z,101051.50
2023-05-05T10:39:59.502Z,101052.78
2023-05-05T10:42:28.010Z,101058.25
2023-05-05T10:44:56.725Z,101052.84
2023-05-05T10:47:26.016Z,101043.00
2023-05-05T10:50:07.811Z,101039.34
2023-05-05T10:52:44.633Z,101047.97
2023-05-05T10:55:24.663Z,101033.88
2023-05-05T10:57:54.304Z,101034.91
2023-05-05T11:00:41.260Z,101030.72
2023-05-05T11:03:18.459Z,101031.75
2023-05-05T11:06:04.913Z,101027.97
2023-05-05T11:08:45.809Z,101025.84
2023-05-05T11:11:14.457Z,101013.97
2023-05-05T11:13:42.658Z,101015.81
2023-05-05T11:16:44.967Z,101006.47
2023-05-05T11:19:43.697Z,101008.56
2023-05-05T11:22:12.434Z,101003.41
2023-05-05T11:24:40.906Z,100988.59
2023-05-05T11:27:10.451Z,100998.16
2023-05-05T11:30:07.588Z,100997.88
2023-05-05T11:32:36.405Z,101001.25
2023-05-05T11:35:06.408Z,100996.56
2023-05-05T11:37:37.488Z,100995.38
2023-05-05T11:40:32.820Z,100987.75
2023-05-05T11:43:07.669Z,100986.34
2023-05-05T11:45:36.140Z,100985.81
2023-05-05T11:48:30.100Z,100984.78
2023-05-05T11:50:58.367Z,100978.84
2023-05-05T11:53:27.723Z,100973.31
2023-05-05T11:56:09.796Z,100973.97
2023-05-05T11:58:38.489Z,100973.44
2023-05-05T12:01:09.547Z,100967.69
2023-05-05T12:03:39.451Z,100965.28
2023-05-05T12:06:08.365Z,100965.69
2023-05-05T12:08:41.124Z,100959.97
2023-05-05T12:11:10.854Z,100954.53
2023-05-05T12:13:39.061Z,100954.25
2023-05-05T12:16:11.270Z,100949.81
2023-05-05T12:18:40.198Z,100951.72
2023-05-05T12:21:21.075Z,100944.91
2023-05-05T12:23:49.291Z,100945.28
2023-05-05T12:26:28.260Z,100943.75
2023-05-05T12:29:00.583Z,100944.38
2023-05-05T12:31:39.660Z,100932.47
2023-05-05T12:34:10.053Z,100931.75
2023-05-05T12:36:38.638Z,100935.88
2023-05-05T12:39:06.952Z,100934.53
2023-05-05T12:41:35.244Z,100932.75
2023-05-05T12:44:04.219Z,100928.03
2023-05-05T12:46:48.916Z,100927.91
2023-05-05T12:49:17.802Z,100919.91
2023-05-05T12:51:56.736Z,100918.53
2023-05-05T12:54:25.289Z,100913.72
2023-05-05T12:56:53.227Z,100919.56
2023-05-05T12:59:21.745Z,100905.91
2023-05-05T13:01:54.177Z,100905.69
2023-05-05T13:04:24.349Z,100905.13
2023-05-05T13:07:18.111Z,100905.88
2023-05-05T13:09:48.249Z,100904.28
2023-05-05T13:12:18.105Z,100898.13
2023-05-05T13:14:47.250Z,100894.25
2023-05-05T13:17:15.285Z,100893.09
2023-05-05T13:19:46.632Z,100884.13
2023-05-05T13:22:14.719Z,100891.78
2023-05-05T13:24:51.706Z,100875.88
2023-05-05T13:27:20.842Z,100884.50
2023-05-05T13:29:49.183Z,100881.97
2023-05-05T13:32:17.066Z,100874.88
2023-05-05T13:34:45.307Z,100881.44
2023-05-05T13:37:13.123Z,100876.25
2023-05-05T13:39:41.415Z,100878.69
2023-05-05T13:42:09.383Z,100871.16
2023-05-05T13:44:37.614Z,100881.69
2023-05-05T13:47:05.797Z,100861.66
2023-05-05T13:49:35.391Z,100857.44
2023-05-05T13:52:03.421Z,100865.69
2023-05-05T13:54:31.868Z,100852.81
2023-05-05T13:57:00.225Z,100851.00
2023-05-05T13:59:28.738Z,100854.16
2023-05-05T14:01:56.619Z,100837.25
2023-05-05T14:04:25.230Z,100847.16
2023-05-05T14:06:54.206Z,100842.56
2023-05-05T14:09:22.555Z,100835.16
2023-05-05T14:11:50.427Z,100834.75
2023-05-05T14:14:19.912Z,100841.47
2023-05-05T14:16:49.993Z,100831.59
2023-05-05T14:19:18.874Z,100835.66
2023-05-05T14:21:46.833Z,100845.50
2023-05-05T14:24:15.161Z,100825.50
2023-05-05T14:26:43.085Z,100829.38
2023-05-05T14:29:11.397Z,100822.78
2023-05-05T14:31:39.312Z,100827.03
2023-05-05T14:34:07.585Z,100821.16
2023-05-05T14:36:35.517Z,100823.44
2023-05-05T14:39:03.873Z,100823.09
2023-05-05T14:41:31.785Z,100823.22
2023-05-05T14:43:59.997Z,100819.38
2023-05-05T14:46:28.122Z,100824.66
2023-05-05T14:48:56.442Z,100816.66
2023-05-05T14:51:25.128Z,100818.31
2023-05-05T14:53:53.020Z,100821.06
2023-05-05T14:56:24.772Z,100817.69
2023-05-05T14:58:53.191Z,100811.06
2023-05-05T15:01:21.471Z,100811.75
2023-05-05T15:03:49.498Z,100815.69
2023-05-05T15:06:17.726Z,100816.31
2023-05-05T15:08:45.695Z,100824.28
2023-05-05T15:11:14.030Z,100819.53
2023-05-05T15:13:41.944Z,100817.09
2023-05-05T15:16:10.568Z,100810.47
2023-05-05T15:18:38.589Z,100814.50
2023-05-05T15:21:07.315Z,100815.66
2023-05-05T15:23:35.266Z,100799.69
2023-05-05T15:26:04.890Z,100800.31
2023-05-05T15:28:32.770Z,100806.44
2023-05-05T15:31:02.349Z,100801.75
2023-05-05T15:33:31.257Z,100804.13
2023-05-05T15:36:00.591Z,100792.66
2023-05-05T15:38:30.012Z,100791.50
2023-05-05T15:40:58.326Z,100789.38
2023-05-05T15:43:26.295Z,100787.31
2023-05-05T15:45:54.740Z,100788.50
2023-05-05T15:48:22.636Z,100779.81
2023-05-05T15:50:50.791Z,100773.22
2023-05-05T15:53:18.718Z,100781.53
2023-05-05T15:55:47.018Z,100779.97
2023-05-05T15:58:14.960Z,100772.66
2023-05-05T16:00:43.204Z,100768.47
2023-05-05T16:03:11.175Z,100767.50
2023-05-05T16:05:39.422Z,100769.03
2023-05-05T16:08:10.357Z,100772.41
2023-05-05T16:10:38.727Z,100765.03
2023-05-05T16:13:07.048Z,100762.63
2023-05-05T16:15:36.054Z,100764.25
2023-05-05T16:18:04.143Z,100761.97
2023-05-05T16:20:32.498Z,100765.66
2023-05-05T16:23:00.547Z,100758.13
2023-05-05T16:25:28.843Z,100763.81
2023-05-05T16:27:57.845Z,100765.00
2023-05-05T16:30:26.238Z,100766.97
2023-05-05T16:32:54.845Z,100763.72
2023-05-05T16:35:23.331Z,100762.38
2023-05-05T16:37:51.408Z,100757.19
2023-05-05T16:40:19.920Z,100751.69
2023-05-05T16:42:47.759Z,100750.53
2023-05-05T16:45:16.245Z,100749.97
2023-05-05T16:47:44.121Z,100750.19
2023-05-05T16:50:12.726Z,100746.97
2023-05-05T16:52:40.791Z,100742.50
2023-05-05T16:55:09.716Z,100740.84
2023-05-05T16:57:37.792Z,100747.13
2023-05-05T17:00:07.560Z,100740.25
2023-05-05T17:02:36.154Z,100738.88
2023-05-05T17:05:05.222Z,100734.59
2023-05-05T17:07:33.199Z,100731.34
2023-05-05T17:10:01.902Z,100734.97
2023-05-05T17:12:29.808Z,100731.97
2023-05-05T17:14:58.001Z,100728.56
2023-05-05T17:17:26.093Z,100734.06
2023-05-05T17:19:54.396Z,100732.34
2023-05-05T17:22:22.447Z,100728.06
2023-05-05T17:24:51.143Z,100727.34
2023-05-05T17:27:19.178Z,100732.53
2023-05-05T17:29:47.330Z,100731.97
2023-05-05T17:32:15.239Z,100732.88
2023-05-05T17:34:43.506Z,100742.00
2023-05-05T17:37:11.560Z,100736.06
2023-05-05T17:39:39.772Z,100736.28
2023-05-05T17:42:07.801Z,100736.69
2023-05-05T17:44:35.951Z,100743.91
2023-05-05T17:47:04.153Z,100743.69
2023-05-05T17:49:32.644Z,100750.00
2023-05-05T17:52:00.855Z,100746.59
2023-05-05T17:54:29.179Z,100753.63
2023-05-05T17:56:57.594Z,100752.56
2023-05-05T17:59:26.396Z,100750.16
2023-05-05T18:01:54.293Z,100755.84
2023-05-05T18:04:22.533Z,100748.75
2023-05-05T18:06:50.465Z,100749.31
2023-05-05T18:09:20.853Z,100755.50
2023-05-05T18:11:49.124Z,100758.78
2023-05-05T18:14:18.752Z,100759.16
2023-05-05T18:16:49.962Z,100755.44
2023-05-05T18:19:23.454Z,100760.16
2023-05-05T18:21:54.657Z,100763.78
2023-05-05T18:24:23.322Z,100758.34
2023-05-05T18:26:52.854Z,100758.91
2023-05-05T18:29:22.362Z,100751.38
2023-05-05T18:31:53.211Z,100752.84
2023-05-05T18:34:22.009Z,100754.66
2023-05-05T18:36:51.572Z,100761.38
2023-05-05T18:39:20.444Z,100767.31
2023-05-05T18:41:48.373Z,100755.66
2023-05-05T18:44:16.860Z,100760.94
2023-05-05T18:46:47.059Z,100764.38
2023-05-05T18:49:15.741Z,100761.78
2023-05-05T18:51:44.038Z,100769.22
2023-05-05T18:54:12.534Z,100769.19
2023-05-05T18:56:40.457Z,100768.84
2023-05-05T18:59:10.057Z,100764.91
2023-05-05T19:01:38.209Z,100769.16
2023-05-05T19:04:15.609Z,100778.22
2023-05-05T19:06:52.526Z,100768.75
2023-05-05T19:09:21.070Z,100776.59
2023-05-05T19:11:49.275Z,100770.00
2023-05-05T19:14:18.726Z,100776.94
2023-05-05T19:16:47.943Z,100773.91
2023-05-05T19:19:18.139Z,100773.91
2023-05-05T19:21:47.271Z,100780.13
2023-05-05T19:24:16.801Z,100771.66
2023-05-05T19:26:44.981Z,100776.19
2023-05-05T19:29:14.296Z,100782.56
2023-05-05T19:31:43.498Z,100791.03
2023-05-05T19:34:13.170Z,100791.75
2023-05-05T19:36:42.256Z,100793.53
2023-05-05T19:39:13.694Z,100788.53
2023-05-05T19:41:45.597Z,100789.25
2023-05-05T19:44:15.266Z,100787.41
2023-05-05T19:46:44.504Z,100788.69
2023-05-05T19:49:14.046Z,100787.28
2023-05-05T19:51:42.919Z,100781.53
2023-05-05T19:54:11.844Z,100787.28
2023-05-05T19:56:40.605Z,100784.03
2023-05-05T19:59:09.463Z,100784.03
2023-05-05T20:01:37.465Z,100792.59
2023-05-05T20:04:05.811Z,100794.50
2023-05-05T20:06:33.978Z,100800.63
2023-05-05T20:09:02.479Z,100794.06
2023-05-05T20:11:30.674Z,100787.97
2023-05-05T20:13:59.489Z,100792.03
2023-05-05T20:16:27.609Z,100798.31
2023-05-05T20:18:56.322Z,100796.56
2023-05-05T20:21:24.303Z,100794.00
2023-05-05T20:23:54.928Z,100792.94
2023-05-05T20:26:24.748Z,100799.81
2023-05-05T20:28:53.249Z,100804.28
2023-05-05T20:31:21.295Z,100802.97
2023-05-05T20:33:50.059Z,100795.63
2023-05-05T20:36:18.710Z,100790.56
2023-05-05T20:38:47.056Z,100794.06
2023-05-05T20:41:15.131Z,100798.34
2023-05-05T20:43:43.666Z,100792.59
2023-05-05T20:46:13.032Z,100800.03
2023-05-05T20:48:42.925Z,100798.91
2023-05-05T20:51:11.530Z,100795.81
2023-05-05T20:53:40.000Z,100790.75
2023-05-05T20:56:08.952Z,100785.31
2023-05-05T20:58:37.949Z,100786.47
2023-05-05T21:01:06.275Z,100784.91
2023-05-05T21:03:36.618Z,100784.91
2023-05-05T21:06:04.706Z,100791.16
2023-05-05T21:08:33.176Z,100790.78
2023-05-05T21:11:01.130Z,100786.50
2023-05-05T21:13:29.505Z,100794.66
2023-05-05T21:15:57.520Z,100789.19
2023-05-05T21:18:27.906Z,100790.78
2023-05-05T21:20:56.459Z,100795.03
2023-05-05T21:23:24.967Z,100798.91
2023-05-05T21:25:52.878Z,100788.78
2023-05-05T21:28:21.242Z,100794.97
2023-05-05T21:31:10.346Z,100801.19
2023-05-05T21:33:40.172Z,100805.81
2023-05-05T21:36:08.490Z,100809.72
2023-05-05T21:38:36.849Z,100810.91
2023-05-05T21:41:04.805Z,100812.81
2023-05-05T21:43:33.470Z,100807.72
2023-05-05T21:46:05.605Z,100806.66
2023-05-05T21:48:34.165Z,100802.00
2023-05-05T21:51:02.147Z,100800.00
2023-05-05T21:53:31.100Z,100794.91
2023-05-05T21:55:59.244Z,100790.97
2023-05-05T21:58:27.836Z,100792.13
2023-05-05T22:00:55.848Z,100790.19
2023-05-05T22:03:24.446Z,100786.34
2023-05-05T22:05:52.599Z,100782.88
2023-05-05T22:08:20.951Z,100786.34
2023-05-05T22:10:48.868Z,100783.13
2023-05-05T22:13:17.403Z,100782.75
2023-05-05T22:15:47.397Z,100782.31
2023-05-05T22:18:16.394Z,100782.25
2023-05-05T22:20:44.559Z,100778.41
2023-05-05T22:23:14.438Z,100784.25
2023-05-05T22:25:42.477Z,100786.19
2023-05-05T22:28:11.761Z,100774.91
2023-05-05T22:30:39.802Z,100772.44
2023-05-05T22:33:08.260Z,100772.47
2023-05-05T22:35:37.591Z,100778.69
2023-05-05T22:38:06.636Z,100776.34
2023-05-05T22:40:35.668Z,100778.59
2023-05-05T22:43:04.094Z,100776.78
2023-05-05T22:45:32.049Z,100774.06
2023-05-05T22:48:01.029Z,100777.19
2023-05-05T22:50:29.181Z,100779.47
2023-05-05T22:52:57.489Z,100778.69
2023-05-05T22:55:25.474Z,100773.59
2023-05-05T22:57:53.982Z,100774.41
2023-05-05T23:00:21.941Z,100783.31
2023-05-05T23:02:50.347Z,100779.53
2023-05-05T23:05:18.328Z,100769.91
2023-05-05T23:07:46.626Z,100776.47
2023-05-05T23:10:14.588Z,100770.56
2023-05-05T23:12:43.203Z,100774.06
2023-05-05T23:15:11.665Z,100775.88
2023-05-05T23:17:40.293Z,100773.66
2023-05-05T23:20:12.011Z,100774.91
2023-05-05T23:22:40.290Z,100774.81
2023-05-05T23:25:08.854Z,100765.53
2023-05-05T23:27:40.377Z,100768.06
2023-05-05T23:30:09.485Z,100771.91
2023-05-05T23:32:38.056Z,100768.53
2023-05-05T23:35:06.522Z,100765.28
2023-05-05T23:37:34.794Z,100773.47
2023-05-05T23:40:02.762Z,100765.78
2023-05-05T23:42:30.925Z,100760.00
2023-05-05T23:44:58.877Z,100761.78
2023-05-05T23:47:27.206Z,100762.09
2023-05-05T23:49:55.174Z,100765.63
2023-05-05T23:52:23.702Z,100764.38
2023-05-05T23:54:51.639Z,100760.22
2023-05-05T23:57:19.860Z,100755.88
2023-05-05T23:59:47.941Z,100746.81
